FOON/MVB METAR and TAF weather

Enter ICAO airport designator
Station Type Date Time Source
FOON METAR 2018/01/16 09:00 UTC NOAA

FOON 160900Z 21005KT 180V270 9999 BKN008 25/22 Q1015


Station Type Date Time Source
FOON Decoded METAR 2018/01/16 09:00 UTC NOAA

Franceville / Mvengue, Gabon (FOON) 01-39S 013-26E
Jan 16, 2018 - 04:00 AM EST / 2018.01.16 0900 UTC
Wind: from the SSW (210 degrees) at 6 MPH (5 KT) (direction variable):0
Visibility: greater than 7 mile(s):0
Sky conditions: mostly cloudy
Temperature: 77 F (25 C)
Dew Point: 71 F (22 C)
Relative Humidity: 83%
Pressure (altimeter): 29.97 in. Hg (1015 hPa)
ob: FOON 160900Z 21005KT 180V270 9999 BKN008 25/22 Q1015
cycle: 9

Station Type Date Time Source
FOON TAF 2012/02/17 18:21 UTC NOAA

TAF TAF FOON 151600Z 1518/1618 20004KT 9999 BKN006
TEMPO 1603/1607 0200 FG OVC002
BECMG 1612/1614 TS SCT015 FEW020CB BKN030


Example: see airport list